Newport News, Virginia
Current Conditions -  °F | °C
As of 6:58 PM on Monday 20 Oct 2014 (Local Time) from KLFI Reporting Station
Broken Clouds Broken Clouds  
Wind Chill: 63°   Ceiling: 22000
Heat Index: 63°   Visibility: 10mi
Dew Point: 47°   Wind: 6mph
Humidity: 58%   Direction: 170°S
Pressure: 30"   Gusts: NA
Location:  36.98°N, 76.43°W
Report Text: KLFI 202258Z AUTO 17005KT 10SM BKN220 17/09 A3000 RMK AO2 SLP166 T01700086 $
Loading
Personal Weather Stations






























Interactive Weather Map New forecast layout! Learn more

10-Day Weather Forecast

Advertisements
Track Severe Weather on mobile